Time;durP1;ratioP1;P1;durP2;ratioP2;P2;SDS_P1;SDS_P2;PMS_P1;PMS_P2;Temp;Humidity;BMP_temperature;BMP_pressure;BME280_temperature;BME280_humidity;BME280_pressure;Samples;Min_cycle;Max_cycle;Signal;HPM_P1;HPM_P2
2023/01/30 01:12:45;;;;;;;1999.90;999.90;;;;;;;;;;5089153;23;20250;-69
2023/01/30 01:15:30;;;;;;;1999.90;999.90;;;;;;;;;;4936526;29;20247;-70
2023/01/30 01:18:15;;;;;;;1999.90;999.90;;;;;;;;;;4964217;28;20214;-71
2023/01/30 01:21:00;;;;;;;1999.90;999.90;;;;;;;;;;4950970;29;20236;-71
2023/01/30 01:23:49;;;;;;;1999.90;999.90;;;;;;;;;;4936790;29;20215;-71
2023/01/30 01:26:34;;;;;;;1999.90;999.90;;;;;;;;;;4951496;29;20221;-71
2023/01/30 01:29:20;;;;;;;1999.90;999.90;;;;;;;;;;4950645;29;20280;-71
2023/01/30 01:32:05;;;;;;;1999.90;999.90;;;;;;;;;;4936808;29;20239;-72
2023/01/30 01:34:50;;;;;;;1999.90;999.90;;;;;;;;;;4935413;29;20454;-71
2023/01/30 01:37:35;;;;;;;1999.90;999.90;;;;;;;;;;4936987;29;20220;-72
2023/01/30 01:43:25;;;;;;;1999.90;999.90;;;;;;;;;;4934285;29;20236;-71
2023/01/30 01:46:14;;;;;;;1999.90;999.90;;;;;;;;;;4936745;29;20209;-71
2023/01/30 01:49:00;;;;;;;1999.90;999.90;;;;;;;;;;4936285;29;20298;-72
2023/01/30 01:51:48;;;;;;;1999.90;999.90;;;;;;;;;;4936452;29;20783;-72
2023/01/30 01:54:36;;;;;;;1999.90;999.90;;;;;;;;;;4936475;29;20194;-71
2023/01/30 01:57:23;;;;;;;1999.90;999.90;;;;;;;;;;4936328;29;20208;-71
2023/01/30 02:00:11;;;;;;;1999.90;999.90;;;;;;;;;;4935511;29;20908;-72
2023/01/30 02:02:58;;;;;;;1999.90;999.90;;;;;;;;;;4936356;29;20219;-72
2023/01/30 02:05:44;;;;;;;1999.90;999.90;;;;;;;;;;4936091;29;20212;-72
2023/01/30 02:08:32;;;;;;;1999.90;999.90;;;;;;;;;;4936159;29;20219;-71
2023/01/30 02:11:21;;;;;;;1999.90;999.90;;;;;;;;;;4935761;29;20786;-71
2023/01/30 02:14:06;;;;;;;1999.90;999.90;;;;;;;;;;4917387;29;20301;-72
2023/01/30 02:16:51;;;;;;;1999.90;999.90;;;;;;;;;;4922339;29;20603;-71
2023/01/30 02:19:45;;;;;;;1999.90;999.90;;;;;;;;;;4936222;29;20220;-71
2023/01/30 02:22:36;;;;;;;1999.90;999.90;;;;;;;;;;4935847;29;20234;-71
2023/01/30 02:25:40;;;;;;;1999.90;999.90;;;;;;;;;;4935878;29;20203;-72
2023/01/30 02:28:37;;;;;;;1999.90;999.90;;;;;;;;;;4935141;29;20341;-71
2023/01/30 02:31:27;;;;;;;1999.90;999.90;;;;;;;;;;4935724;29;20256;-72
2023/01/30 02:34:19;;;;;;;1999.90;999.90;;;;;;;;;;4935841;29;20215;-72
2023/01/30 02:37:10;;;;;;;1999.90;999.90;;;;;;;;;;4935518;29;20227;-72
2023/01/30 02:40:03;;;;;;;1999.90;999.90;;;;;;;;;;4935945;29;20596;-71
2023/01/30 02:42:56;;;;;;;1999.90;999.90;;;;;;;;;;4935574;29;20212;-71
2023/01/30 02:45:44;;;;;;;1999.90;999.90;;;;;;;;;;4935198;29;20200;-72
2023/01/30 02:48:34;;;;;;;1999.90;999.90;;;;;;;;;;4935114;29;20270;-71
2023/01/30 02:51:21;;;;;;;1999.90;999.90;;;;;;;;;;4935467;29;20235;-71
2023/01/30 02:54:07;;;;;;;1999.90;999.90;;;;;;;;;;4935607;29;20216;-71
2023/01/30 02:56:53;;;;;;;1999.90;999.90;;;;;;;;;;4934927;29;20627;-71
2023/01/30 02:59:41;;;;;;;1999.90;999.90;;;;;;;;;;4935457;29;20203;-71
2023/01/30 03:02:42;;;;;;;1999.90;999.90;;;;;;;;;;4934915;29;20229;-71
2023/01/30 03:05:37;;;;;;;1999.90;999.90;;;;;;;;;;4934842;29;20225;-71
2023/01/30 03:08:25;;;;;;;1999.90;999.90;;;;;;;;;;4935460;29;20222;-71
2023/01/30 03:11:11;;;;;;;1999.90;999.90;;;;;;;;;;4934882;29;20618;-71
2023/01/30 03:13:59;;;;;;;1999.90;999.90;;;;;;;;;;4935376;29;20583;-71
2023/01/30 03:16:44;;;;;;;1999.90;999.90;;;;;;;;;;4934618;29;20493;-71
2023/01/30 03:19:30;;;;;;;1999.90;999.90;;;;;;;;;;4935232;29;20706;-71
2023/01/30 03:22:16;;;;;;;1999.90;999.90;;;;;;;;;;4934885;29;20736;-71
2023/01/30 03:25:01;;;;;;;1999.90;999.90;;;;;;;;;;4934638;29;20572;-71
2023/01/30 03:27:46;;;;;;;1999.90;999.90;;;;;;;;;;4934644;29;20211;-72
2023/01/30 03:30:31;;;;;;;1999.90;999.90;;;;;;;;;;4934457;29;20219;-71
2023/01/30 03:33:16;;;;;;;1999.90;999.90;;;;;;;;;;4935199;29;20216;-71
2023/01/30 03:36:01;;;;;;;1999.90;999.90;;;;;;;;;;4934337;29;20592;-71
2023/01/30 03:38:48;;;;;;;1999.90;999.90;;;;;;;;;;4935247;29;20217;-71
2023/01/30 03:41:33;;;;;;;1999.90;999.90;;;;;;;;;;4934390;29;20351;-70
2023/01/30 03:44:18;;;;;;;1999.90;999.90;;;;;;;;;;4934600;29;20612;-71
2023/01/30 03:47:03;;;;;;;1999.90;999.90;;;;;;;;;;4934821;29;20256;-71
2023/01/30 03:49:47;;;;;;;1999.90;999.90;;;;;;;;;;4934633;29;20216;-71
2023/01/30 03:52:34;;;;;;;1999.90;999.90;;;;;;;;;;4934574;29;20228;-71
2023/01/30 03:55:21;;;;;;;1999.90;999.90;;;;;;;;;;4934167;29;20344;-71
2023/01/30 03:58:05;;;;;;;1999.90;999.90;;;;;;;;;;4935016;29;20208;-71
2023/01/30 04:00:51;;;;;;;1999.90;999.90;;;;;;;;;;4934560;29;20255;-71
2023/01/30 04:03:36;;;;;;;1999.90;999.90;;;;;;;;;;4934475;29;20685;-72
2023/01/30 04:06:21;;;;;;;1999.90;999.90;;;;;;;;;;4934112;29;20913;-71
2023/01/30 04:09:06;;;;;;;1999.90;999.90;;;;;;;;;;4934292;29;20351;-71
2023/01/30 04:11:52;;;;;;;1999.90;999.90;;;;;;;;;;4934543;29;20319;-71
2023/01/30 04:14:37;;;;;;;1999.90;999.90;;;;;;;;;;4933855;29;20208;-71
2023/01/30 04:17:22;;;;;;;1999.90;999.90;;;;;;;;;;4934410;29;20232;-71
2023/01/30 04:20:07;;;;;;;1999.90;999.90;;;;;;;;;;4934251;29;20219;-71
2023/01/30 04:22:54;;;;;;;1999.90;999.90;;;;;;;;;;4934578;29;20215;-72
2023/01/30 04:25:39;;;;;;;1999.90;999.90;;;;;;;;;;4933712;29;20237;-71
2023/01/30 04:28:25;;;;;;;1999.90;999.90;;;;;;;;;;4934165;29;20212;-71
2023/01/30 04:31:11;;;;;;;1999.90;999.90;;;;;;;;;;4934323;29;20256;-71
2023/01/30 04:33:56;;;;;;;1999.90;999.90;;;;;;;;;;4934219;29;20213;-71
2023/01/30 04:36:40;;;;;;;1999.90;999.90;;;;;;;;;;4934075;29;20938;-71
2023/01/30 04:39:25;;;;;;;1999.90;999.90;;;;;;;;;;4936304;29;20213;-71
2023/01/30 04:42:10;;;;;;;1999.90;999.90;;;;;;;;;;4938108;29;20247;-71
2023/01/30 04:44:56;;;;;;;1999.90;999.90;;;;;;;;;;4937112;29;20242;-71
2023/01/30 04:47:41;;;;;;;1999.90;999.90;;;;;;;;;;4937930;29;20407;-71
2023/01/30 04:50:26;;;;;;;1999.90;999.90;;;;;;;;;;4937739;29;20212;-71
2023/01/30 04:53:11;;;;;;;1999.90;999.90;;;;;;;;;;4937521;29;20434;-72
2023/01/30 04:55:56;;;;;;;1999.90;999.90;;;;;;;;;;4918558;29;20233;-71
2023/01/30 04:58:41;;;;;;;1999.90;999.90;;;;;;;;;;4927496;29;20209;-71
2023/01/30 05:01:31;;;;;;;1999.90;999.90;;;;;;;;;;4937625;29;20255;-71
2023/01/30 05:04:16;;;;;;;1999.90;999.90;;;;;;;;;;4936972;29;20214;-71
2023/01/30 05:07:01;;;;;;;1999.90;999.90;;;;;;;;;;4937612;29;20215;-71
2023/01/30 05:09:45;;;;;;;1999.90;999.90;;;;;;;;;;4936037;29;20212;-71
2023/01/30 05:12:30;;;;;;;1999.90;999.90;;;;;;;;;;4936967;29;20245;-71
2023/01/30 05:15:15;;;;;;;1999.90;999.90;;;;;;;;;;4918200;29;20237;-71
2023/01/30 05:18:02;;;;;;;1999.90;999.90;;;;;;;;;;4925703;29;20220;-71
2023/01/30 05:20:46;;;;;;;1999.90;999.90;;;;;;;;;;4937344;29;20731;-71
2023/01/30 05:23:31;;;;;;;1999.90;999.90;;;;;;;;;;4936851;29;20237;-71
2023/01/30 05:26:16;;;;;;;1999.90;999.90;;;;;;;;;;4937045;29;20208;-71
2023/01/30 05:29:01;;;;;;;1999.90;999.90;;;;;;;;;;4935228;29;20579;-71
2023/01/30 05:31:46;;;;;;;1999.90;999.90;;;;;;;;;;4937208;29;20255;-71
2023/01/30 05:34:33;;;;;;;1999.90;999.90;;;;;;;;;;4935171;29;20300;-71
2023/01/30 05:37:17;;;;;;;1999.90;999.90;;;;;;;;;;4936376;29;20244;-72
2023/01/30 05:40:03;;;;;;;1999.90;999.90;;;;;;;;;;4937236;29;20300;-72
2023/01/30 05:42:48;;;;;;;1999.90;999.90;;;;;;;;;;4936794;29;20283;-72
2023/01/30 05:45:33;;;;;;;1999.90;999.90;;;;;;;;;;4936725;29;20276;-72
2023/01/30 05:48:17;;;;;;;1999.90;999.90;;;;;;;;;;4936290;29;20587;-72
2023/01/30 05:51:04;;;;;;;1999.90;999.90;;;;;;;;;;4936151;29;20777;-72
2023/01/30 05:53:49;;;;;;;1999.90;999.90;;;;;;;;;;4936408;29;20216;-72
2023/01/30 05:56:34;;;;;;;1999.90;999.90;;;;;;;;;;4936483;29;20231;-72
2023/01/30 05:59:19;;;;;;;1999.90;999.90;;;;;;;;;;4936634;29;20346;-72
2023/01/30 06:02:04;;;;;;;1999.90;999.90;;;;;;;;;;4935953;29;20312;-72
2023/01/30 06:04:49;;;;;;;1999.90;999.90;;;;;;;;;;4936020;29;20280;-72
2023/01/30 06:07:35;;;;;;;1999.90;999.90;;;;;;;;;;4930374;29;20699;-72
2023/01/30 06:10:20;;;;;;;1999.90;999.90;;;;;;;;;;4941059;29;20723;-72
2023/01/30 06:13:05;;;;;;;1999.90;999.90;;;;;;;;;;4951065;29;20203;-72
2023/01/30 06:15:50;;;;;;;1999.90;999.90;;;;;;;;;;4949922;29;20579;-72
2023/01/30 06:18:35;;;;;;;1999.90;999.90;;;;;;;;;;4944462;29;20798;-72
2023/01/30 06:21:20;;;;;;;1999.90;999.90;;;;;;;;;;4917021;29;20827;-72
2023/01/30 06:24:06;;;;;;;1999.90;999.90;;;;;;;;;;4926592;29;20288;-73
2023/01/30 06:26:51;;;;;;;1999.90;999.90;;;;;;;;;;4936081;29;20204;-72
2023/01/30 06:29:36;;;;;;;1999.90;999.90;;;;;;;;;;4948904;29;20638;-72
2023/01/30 06:32:21;;;;;;;1999.90;999.90;;;;;;;;;;4953911;28;20315;-72
2023/01/30 06:35:06;;;;;;;1999.90;999.90;;;;;;;;;;4950662;29;20235;-72
2023/01/30 06:37:51;;;;;;;1999.90;999.90;;;;;;;;;;4951510;29;20220;-72
2023/01/30 06:40:37;;;;;;;1999.90;999.90;;;;;;;;;;4953646;28;20359;-72
2023/01/30 06:43:22;;;;;;;1999.90;999.90;;;;;;;;;;4953691;29;20215;-73
2023/01/30 06:46:07;;;;;;;1999.90;999.90;;;;;;;;;;4953553;29;20235;-73
2023/01/30 06:48:53;;;;;;;1999.90;999.90;;;;;;;;;;4952639;29;20425;-73
2023/01/30 06:51:38;;;;;;;1999.90;999.90;;;;;;;;;;4953710;28;20594;-73
2023/01/30 06:54:23;;;;;;;1999.90;999.90;;;;;;;;;;4952846;29;20733;-72
2023/01/30 06:57:09;;;;;;;1999.90;999.90;;;;;;;;;;4953713;29;20227;-72
2023/01/30 06:59:54;;;;;;;1999.90;999.90;;;;;;;;;;4953213;29;20204;-73
2023/01/30 07:02:39;;;;;;;1999.90;999.90;;;;;;;;;;4948452;28;20356;-72
2023/01/30 07:05:24;;;;;;;1999.90;999.90;;;;;;;;;;4950482;29;20210;-72
2023/01/30 07:08:09;;;;;;;1999.90;999.90;;;;;;;;;;4953232;29;20598;-73
2023/01/30 07:10:54;;;;;;;1999.90;999.90;;;;;;;;;;4953337;28;20318;-72
2023/01/30 07:13:41;;;;;;;1999.90;999.90;;;;;;;;;;4946833;29;20471;-72
2023/01/30 07:16:28;;;;;;;1999.90;999.90;;;;;;;;;;4952079;29;20583;-70
2023/01/30 07:19:12;;;;;;;1999.90;999.90;;;;;;;;;;4941028;29;20352;-72
2023/01/30 07:21:57;;;;;;;1999.90;999.90;;;;;;;;;;4935142;29;20235;-72
2023/01/30 07:24:42;;;;;;;1999.90;999.90;;;;;;;;;;4934981;29;20580;-69
2023/01/30 07:27:27;;;;;;;1999.90;999.90;;;;;;;;;;4935160;29;20706;-72
2023/01/30 07:30:13;;;;;;;1999.90;999.90;;;;;;;;;;4947896;29;20216;-73
2023/01/30 07:32:59;;;;;;;1999.90;999.90;;;;;;;;;;4953265;29;20203;-72
2023/01/30 07:35:44;;;;;;;1999.90;999.90;;;;;;;;;;4952698;29;20583;-72
2023/01/30 07:38:29;;;;;;;1999.90;999.90;;;;;;;;;;4952498;29;20235;-69
2023/01/30 07:41:14;;;;;;;1999.90;999.90;;;;;;;;;;4952727;28;20349;-72
2023/01/30 07:43:59;;;;;;;1999.90;999.90;;;;;;;;;;4953517;29;20606;-71
2023/01/30 07:46:45;;;;;;;1999.90;999.90;;;;;;;;;;4953198;29;20754;-72
2023/01/30 07:49:30;;;;;;;1999.90;999.90;;;;;;;;;;4949199;29;20217;-72
2023/01/30 07:52:15;;;;;;;1999.90;999.90;;;;;;;;;;4945188;29;20226;-72
2023/01/30 07:55:00;;;;;;;1999.90;999.90;;;;;;;;;;4952326;29;20218;-69
2023/01/30 07:57:45;;;;;;;1999.90;999.90;;;;;;;;;;4949724;29;20294;-71
2023/01/30 08:00:30;;;;;;;1999.90;999.90;;;;;;;;;;4952669;28;20698;-72
2023/01/30 08:03:16;;;;;;;1999.90;999.90;;;;;;;;;;4952447;29;20226;-71
2023/01/30 08:06:01;;;;;;;1999.90;999.90;;;;;;;;;;4952201;29;20250;-72
2023/01/30 08:08:46;;;;;;;1999.90;999.90;;;;;;;;;;4950727;29;20228;-72
2023/01/30 08:11:31;;;;;;;1999.90;999.90;;;;;;;;;;4952223;28;20240;-73
2023/01/30 08:14:16;;;;;;;1999.90;999.90;;;;;;;;;;4943069;28;20215;-73
2023/01/30 08:17:01;;;;;;;1999.90;999.90;;;;;;;;;;4953029;29;20222;-73
2023/01/30 08:19:47;;;;;;;1999.90;999.90;;;;;;;;;;4953776;29;20337;-73
2023/01/30 08:22:32;;;;;;;1999.90;999.90;;;;;;;;;;4955895;28;20238;-73
2023/01/30 08:25:17;;;;;;;1999.90;999.90;;;;;;;;;;4955848;29;20705;-73
2023/01/30 08:28:02;;;;;;;1999.90;999.90;;;;;;;;;;4956409;29;20213;-73
2023/01/30 08:30:48;;;;;;;1999.90;999.90;;;;;;;;;;4940865;29;20227;-72
2023/01/30 08:33:33;;;;;;;1999.90;999.90;;;;;;;;;;4942552;29;20698;-73
2023/01/30 08:36:20;;;;;;;1999.90;999.90;;;;;;;;;;4937006;29;20274;-71
2023/01/30 08:39:04;;;;;;;1999.90;999.90;;;;;;;;;;4937291;29;20675;-72
2023/01/30 08:41:49;;;;;;;1999.90;999.90;;;;;;;;;;4937664;29;20255;-71
2023/01/30 08:44:34;;;;;;;1999.90;999.90;;;;;;;;;;4937282;29;20211;-72
2023/01/30 08:47:19;;;;;;;1999.90;999.90;;;;;;;;;;4938510;29;20584;-72
2023/01/30 08:50:05;;;;;;;1999.90;999.90;;;;;;;;;;4954695;29;20217;-74
2023/01/30 08:52:51;;;;;;;1999.90;999.90;;;;;;;;;;4954939;29;20232;-74
2023/01/30 08:55:36;;;;;;;1999.90;999.90;;;;;;;;;;4952190;29;20295;-73
2023/01/30 08:58:21;;;;;;;1999.90;999.90;;;;;;;;;;4955346;29;20303;-73
2023/01/30 09:01:07;;;;;;;1999.90;999.90;;;;;;;;;;4952484;28;20247;-72
2023/01/30 09:03:51;;;;;;;1999.90;999.90;;;;;;;;;;4955425;29;20697;-72
2023/01/30 09:06:36;;;;;;;1999.90;999.90;;;;;;;;;;4937303;29;20228;-72
2023/01/30 09:09:23;;;;;;;1999.90;999.90;;;;;;;;;;4945508;29;20203;-73
2023/01/30 09:12:07;;;;;;;1999.90;999.90;;;;;;;;;;4955009;28;20242;-74
2023/01/30 09:14:54;;;;;;;1999.90;999.90;;;;;;;;;;4952259;29;20255;-74
2023/01/30 09:17:39;;;;;;;1999.90;999.90;;;;;;;;;;4955090;29;20239;-73
2023/01/30 09:20:24;;;;;;;1999.90;999.90;;;;;;;;;;4955938;28;20218;-73
2023/01/30 09:23:09;;;;;;;1999.90;999.90;;;;;;;;;;4934406;29;20605;-73
2023/01/30 09:25:55;;;;;;;1999.90;999.90;;;;;;;;;;4935821;29;20224;-73
2023/01/30 09:28:40;;;;;;;1999.90;999.90;;;;;;;;;;4936676;29;20214;-74
2023/01/30 09:31:25;;;;;;;1999.90;999.90;;;;;;;;;;4936531;29;20335;-73
2023/01/30 09:34:10;;;;;;;1999.90;999.90;;;;;;;;;;4936662;29;20208;-73
2023/01/30 09:36:55;;;;;;;1999.90;999.90;;;;;;;;;;4936694;29;20216;-74
2023/01/30 09:39:40;;;;;;;1999.90;999.90;;;;;;;;;;4936948;29;20579;-75
2023/01/30 09:42:34;;;;;;;1999.90;999.90;;;;;;;;;;4936555;29;20236;-74
2023/01/30 09:45:37;;;;;;;1999.90;999.90;;;;;;;;;;4938352;29;20213;-75
2023/01/30 09:48:26;;;;;;;1999.90;999.90;;;;;;;;;;4952877;29;20224;-75
2023/01/30 09:51:14;;;;;;;1999.90;999.90;;;;;;;;;;4950030;28;20232;-75
2023/01/30 09:54:04;;;;;;;1999.90;999.90;;;;;;;;;;4935604;29;20216;-74
2023/01/30 09:57:05;;;;;;;1999.90;999.90;;;;;;;;;;4936054;29;20330;-74
2023/01/30 09:59:54;;;;;;;1999.90;999.90;;;;;;;;;;4934728;29;20573;-74
2023/01/30 10:02:41;;;;;;;1999.90;999.90;;;;;;;;;;4936453;29;20236;-74
2023/01/30 10:05:30;;;;;;;1999.90;999.90;;;;;;;;;;4935365;29;20426;-75
2023/01/30 10:08:21;;;;;;;1999.90;999.90;;;;;;;;;;4917168;29;20769;-74
2023/01/30 10:11:15;;;;;;;1999.90;999.90;;;;;;;;;;4931425;29;20747;-74
2023/01/30 10:14:08;;;;;;;1999.90;999.90;;;;;;;;;;4936278;29;20580;-74
2023/01/30 10:17:01;;;;;;;1999.90;999.90;;;;;;;;;;4935623;29;20780;-74
2023/01/30 10:19:55;;;;;;;1999.90;999.90;;;;;;;;;;4931883;29;20208;-75
2023/01/30 10:22:45;;;;;;;1999.90;999.90;;;;;;;;;;4948875;28;20217;-75
2023/01/30 10:25:32;;;;;;;1999.90;999.90;;;;;;;;;;4942800;29;20213;-75
2023/01/30 10:28:21;;;;;;;1999.90;999.90;;;;;;;;;;4936036;29;20210;-75
2023/01/30 10:31:09;;;;;;;1999.90;999.90;;;;;;;;;;4935666;29;20362;-75
2023/01/30 10:33:58;;;;;;;1999.90;999.90;;;;;;;;;;4935540;29;20304;-74
2023/01/30 10:36:46;;;;;;;1999.90;999.90;;;;;;;;;;4937344;28;20260;-75
2023/01/30 10:39:36;;;;;;;1999.90;999.90;;;;;;;;;;4941368;29;20281;-75
2023/01/30 10:42:23;;;;;;;1999.90;999.90;;;;;;;;;;4935231;29;20225;-75
2023/01/30 10:45:12;;;;;;;1999.90;999.90;;;;;;;;;;4934926;29;20217;-75
2023/01/30 10:48:02;;;;;;;1999.90;999.90;;;;;;;;;;4934697;29;20215;-73
2023/01/30 10:50:52;;;;;;;1999.90;999.90;;;;;;;;;;4935367;29;20271;-74
2023/01/30 10:53:41;;;;;;;1999.90;999.90;;;;;;;;;;4934912;29;20685;-74
2023/01/30 10:56:30;;;;;;;1999.90;999.90;;;;;;;;;;4935332;29;20209;-74
2023/01/30 10:59:21;;;;;;;1999.90;999.90;;;;;;;;;;4935207;29;20233;-73
2023/01/30 11:02:13;;;;;;;1999.90;999.90;;;;;;;;;;4934968;29;20245;-74
2023/01/30 11:04:59;;;;;;;1999.90;999.90;;;;;;;;;;4935085;29;20205;-75
2023/01/30 11:07:46;;;;;;;1999.90;999.90;;;;;;;;;;4934964;29;20206;-74
2023/01/30 11:10:32;;;;;;;1999.90;999.90;;;;;;;;;;4934339;29;20222;-73
2023/01/30 11:13:18;;;;;;;1999.90;999.90;;;;;;;;;;4932346;29;20272;-75
2023/01/30 11:16:04;;;;;;;1999.90;999.90;;;;;;;;;;4933781;29;20279;-75
2023/01/30 11:18:50;;;;;;;1999.90;999.90;;;;;;;;;;4934915;29;20361;-73
2023/01/30 11:21:37;;;;;;;1999.90;999.90;;;;;;;;;;4934828;29;20228;-73
2023/01/30 11:24:28;;;;;;;1999.90;999.90;;;;;;;;;;4934901;29;20333;-75
2023/01/30 11:27:17;;;;;;;1999.90;999.90;;;;;;;;;;4934677;29;20221;-73
2023/01/30 11:30:06;;;;;;;1999.90;999.90;;;;;;;;;;4934924;29;20210;-73
2023/01/30 11:33:04;;;;;;;1999.90;999.90;;;;;;;;;;4934510;29;20688;-73
2023/01/30 11:35:54;;;;;;;1999.90;999.90;;;;;;;;;;4934005;29;20694;-73
2023/01/30 11:38:52;;;;;;;1999.90;999.90;;;;;;;;;;4930176;29;20795;-74
2023/01/30 11:41:41;;;;;;;1999.90;999.90;;;;;;;;;;4932074;29;20213;-75
2023/01/30 11:44:26;;;;;;;1999.90;999.90;;;;;;;;;;4915523;29;20221;-74
2023/01/30 11:47:15;;;;;;;1999.90;999.90;;;;;;;;;;4915592;29;20225;-74
2023/01/30 11:50:01;;;;;;;1999.90;999.90;;;;;;;;;;4922987;29;20351;-73
2023/01/30 11:52:46;;;;;;;1999.90;999.90;;;;;;;;;;4934688;29;20236;-73
2023/01/30 11:55:33;;;;;;;1999.90;999.90;;;;;;;;;;4934415;29;20204;-73
2023/01/30 11:58:20;;;;;;;1999.90;999.90;;;;;;;;;;4934614;29;20225;-74
2023/01/30 12:01:05;;;;;;;1999.90;999.90;;;;;;;;;;4934417;29;20313;-74
2023/01/30 12:03:53;;;;;;;1999.90;999.90;;;;;;;;;;4934732;29;20256;-73
2023/01/30 12:06:39;;;;;;;1999.90;999.90;;;;;;;;;;4934195;29;20793;-74
2023/01/30 12:09:31;;;;;;;1999.90;999.90;;;;;;;;;;4932751;29;20438;-73
2023/01/30 12:12:30;;;;;;;1999.90;999.90;;;;;;;;;;4934040;29;20244;-74
2023/01/30 12:15:20;;;;;;;1999.90;999.90;;;;;;;;;;4933576;29;20949;-74
2023/01/30 12:18:08;;;;;;;1999.90;999.90;;;;;;;;;;4934316;29;20213;-73
2023/01/30 12:20:57;;;;;;;1999.90;999.90;;;;;;;;;;4933700;29;20277;-74
2023/01/30 12:23:45;;;;;;;1999.90;999.90;;;;;;;;;;4915505;29;20326;-74
2023/01/30 12:26:33;;;;;;;1999.90;999.90;;;;;;;;;;4915240;29;20253;-73
2023/01/30 12:29:22;;;;;;;1999.90;999.90;;;;;;;;;;4915513;29;20340;-74
2023/01/30 12:32:11;;;;;;;1999.90;999.90;;;;;;;;;;4933821;29;20232;-74
2023/01/30 12:34:56;;;;;;;1999.90;999.90;;;;;;;;;;4933345;29;20209;-74
2023/01/30 12:37:45;;;;;;;1999.90;999.90;;;;;;;;;;4934384;29;20257;-72
2023/01/30 12:40:35;;;;;;;1999.90;999.90;;;;;;;;;;4933976;29;20253;-73
2023/01/30 12:43:34;;;;;;;1999.90;999.90;;;;;;;;;;4934416;29;20283;-74
2023/01/30 12:46:27;;;;;;;1999.90;999.90;;;;;;;;;;4933751;29;20257;-74
2023/01/30 12:49:24;;;;;;;1999.90;999.90;;;;;;;;;;4934230;29;20201;-73
2023/01/30 12:52:16;;;;;;;1999.90;999.90;;;;;;;;;;4933548;29;20696;-74
2023/01/30 12:55:07;;;;;;;1999.90;999.90;;;;;;;;;;4933534;29;20262;-74
2023/01/30 12:57:54;;;;;;;1999.90;999.90;;;;;;;;;;4933581;29;20204;-73
2023/01/30 13:00:45;;;;;;;1999.90;999.90;;;;;;;;;;4936833;29;20592;-73
2023/01/30 13:03:35;;;;;;;1999.90;999.90;;;;;;;;;;4937234;29;20289;-73
2023/01/30 13:06:32;;;;;;;1999.90;999.90;;;;;;;;;;4937208;29;20214;-73
2023/01/30 13:09:26;;;;;;;1999.90;999.90;;;;;;;;;;4935278;29;20209;-73
2023/01/30 13:12:16;;;;;;;1999.90;999.90;;;;;;;;;;4951234;28;20232;-72
2023/01/30 13:15:07;;;;;;;1999.90;999.90;;;;;;;;;;4954117;29;20280;-72
2023/01/30 13:17:56;;;;;;;1999.90;999.90;;;;;;;;;;4952673;29;20388;-72
2023/01/30 13:20:51;;;;;;;1999.90;999.90;;;;;;;;;;4954998;28;20615;-72
2023/01/30 13:23:44;;;;;;;1999.90;999.90;;;;;;;;;;4948826;29;20226;-72
2023/01/30 13:26:33;;;;;;;1999.90;999.90;;;;;;;;;;4954762;29;20568;-72
2023/01/30 13:29:23;;;;;;;1999.90;999.90;;;;;;;;;;4952499;29;20205;-72
2023/01/30 13:32:15;;;;;;;1999.90;999.90;;;;;;;;;;4953928;28;20237;-72
2023/01/30 13:35:01;;;;;;;1999.90;999.90;;;;;;;;;;4954440;29;20212;-72
2023/01/30 13:37:47;;;;;;;1999.90;999.90;;;;;;;;;;4955412;29;20228;-73
2023/01/30 13:40:38;;;;;;;1999.90;999.90;;;;;;;;;;4945118;28;20260;-73
2023/01/30 13:43:25;;;;;;;1999.90;999.90;;;;;;;;;;4955457;29;20353;-73
2023/01/30 13:46:15;;;;;;;1999.90;999.90;;;;;;;;;;4937473;29;20570;-72
2023/01/30 13:49:05;;;;;;;1999.90;999.90;;;;;;;;;;4936114;29;20577;-72
2023/01/30 13:51:52;;;;;;;1999.90;999.90;;;;;;;;;;4930992;29;20237;-70
2023/01/30 13:54:42;;;;;;;1999.90;999.90;;;;;;;;;;4933439;29;20209;-72
2023/01/30 13:57:32;;;;;;;1999.90;999.90;;;;;;;;;;4925146;29;20701;-72
2023/01/30 14:00:29;;;;;;;1999.90;999.90;;;;;;;;;;4935167;29;20694;-73
2023/01/30 14:03:30;;;;;;;1999.90;999.90;;;;;;;;;;4935985;29;20217;-72
2023/01/30 14:06:32;;;;;;;1999.90;999.90;;;;;;;;;;4936188;29;20700;-72
2023/01/30 14:09:19;;;;;;;1999.90;999.90;;;;;;;;;;4935522;29;20268;-73
2023/01/30 14:12:05;;;;;;;1999.90;999.90;;;;;;;;;;4926360;29;20240;-72
2023/01/30 14:14:59;;;;;;;1999.90;999.90;;;;;;;;;;4935175;29;20624;-72
2023/01/30 14:17:56;;;;;;;1999.90;999.90;;;;;;;;;;4934105;29;20214;-73
2023/01/30 14:20:44;;;;;;;1999.90;999.90;;;;;;;;;;4935009;29;20711;-73
2023/01/30 14:23:30;;;;;;;1999.90;999.90;;;;;;;;;;4933407;29;20214;-72
2023/01/30 14:26:16;;;;;;;1999.90;999.90;;;;;;;;;;4935462;29;20244;-72
2023/01/30 14:29:00;;;;;;;1999.90;999.90;;;;;;;;;;4934968;29;20596;-72
2023/01/30 14:31:48;;;;;;;1999.90;999.90;;;;;;;;;;4931895;29;20848;-71
2023/01/30 14:34:42;;;;;;;1999.90;999.90;;;;;;;;;;4935342;29;20336;-73
2023/01/30 14:37:55;;;;;;;1999.90;999.90;;;;;;;;;;4935912;29;20320;-71
2023/01/30 14:40:59;;;;;;;1999.90;999.90;;;;;;;;;;4934889;29;20261;-72
2023/01/30 14:43:51;;;;;;;1999.90;999.90;;;;;;;;;;4935542;29;20221;-71
2023/01/30 14:46:42;;;;;;;1999.90;999.90;;;;;;;;;;4935534;29;20700;-71
2023/01/30 14:49:38;;;;;;;1999.90;999.90;;;;;;;;;;4935222;29;20209;-71
2023/01/30 14:52:28;;;;;;;1999.90;999.90;;;;;;;;;;4935003;29;20418;-72
2023/01/30 14:55:18;;;;;;;1999.90;999.90;;;;;;;;;;4934782;29;20219;-71
2023/01/30 14:58:03;;;;;;;1999.90;999.90;;;;;;;;;;4935599;29;20287;-71
2023/01/30 15:00:56;;;;;;;1999.90;999.90;;;;;;;;;;4935393;29;20246;-71
2023/01/30 15:03:46;;;;;;;1999.90;999.90;;;;;;;;;;4934902;29;20276;-72
2023/01/30 15:06:36;;;;;;;1999.90;999.90;;;;;;;;;;4935141;29;20205;-73
2023/01/30 15:09:22;;;;;;;1999.90;999.90;;;;;;;;;;4934532;29;20205;-71
2023/01/30 15:12:16;;;;;;;1999.90;999.90;;;;;;;;;;4916017;29;20297;-71
2023/01/30 15:15:04;;;;;;;1999.90;999.90;;;;;;;;;;4930790;29;20396;-71
2023/01/30 15:17:58;;;;;;;1999.90;999.90;;;;;;;;;;4916171;29;20262;-71
2023/01/30 15:20:48;;;;;;;1999.90;999.90;;;;;;;;;;4919312;29;20652;-70
2023/01/30 15:23:47;;;;;;;1999.90;999.90;;;;;;;;;;4918843;29;20752;-71
2023/01/30 15:26:37;;;;;;;1999.90;999.90;;;;;;;;;;4934279;29;20239;-71
2023/01/30 15:29:32;;;;;;;1999.90;999.90;;;;;;;;;;4944550;29;20454;-71
2023/01/30 15:32:18;;;;;;;1999.90;999.90;;;;;;;;;;4950908;28;20229;-71
2023/01/30 15:35:19;;;;;;;1999.90;999.90;;;;;;;;;;4946866;29;20707;-72
2023/01/30 15:38:04;;;;;;;1999.90;999.90;;;;;;;;;;4952774;29;20410;-71
2023/01/30 15:40:51;;;;;;;1999.90;999.90;;;;;;;;;;4952573;28;20594;-72
2023/01/30 15:43:44;;;;;;;1999.90;999.90;;;;;;;;;;4952771;29;20676;-71
2023/01/30 15:46:33;;;;;;;1999.90;999.90;;;;;;;;;;4949509;29;20583;-72
2023/01/30 15:49:31;;;;;;;1999.90;999.90;;;;;;;;;;4947664;29;20818;-72
2023/01/30 15:52:18;;;;;;;1999.90;999.90;;;;;;;;;;4920874;29;20226;-71
2023/01/30 15:55:03;;;;;;;1999.90;999.90;;;;;;;;;;4947068;29;20217;-72
2023/01/30 15:57:52;;;;;;;1999.90;999.90;;;;;;;;;;4951118;29;20209;-71
2023/01/30 16:00:40;;;;;;;1999.90;999.90;;;;;;;;;;4943071;28;20219;-71
2023/01/30 16:03:26;;;;;;;1999.90;999.90;;;;;;;;;;4952500;29;20299;-71
2023/01/30 16:06:22;;;;;;;1999.90;999.90;;;;;;;;;;4952032;29;20707;-72
2023/01/30 16:09:18;;;;;;;1999.90;999.90;;;;;;;;;;4952510;29;20213;-72
2023/01/30 16:12:03;;;;;;;1999.90;999.90;;;;;;;;;;4948937;28;20312;-71
2023/01/30 16:14:50;;;;;;;1999.90;999.90;;;;;;;;;;4951964;29;20804;-71
2023/01/30 16:17:35;;;;;;;1999.90;999.90;;;;;;;;;;4952254;29;20252;-73
2023/01/30 16:20:19;;;;;;;1999.90;999.90;;;;;;;;;;4952095;29;20319;-71
2023/01/30 16:23:04;;;;;;;1999.90;999.90;;;;;;;;;;4950755;29;20224;-71
2023/01/30 16:25:50;;;;;;;1999.90;999.90;;;;;;;;;;4938710;29;20715;-71
2023/01/30 16:28:35;;;;;;;1999.90;999.90;;;;;;;;;;4940208;29;20204;-71
2023/01/30 16:31:24;;;;;;;1999.90;999.90;;;;;;;;;;4945221;28;20899;-74
2023/01/30 16:34:22;;;;;;;1999.90;999.90;;;;;;;;;;4940148;29;20217;-72
2023/01/30 16:37:22;;;;;;;1999.90;999.90;;;;;;;;;;4947619;29;20241;-72
2023/01/30 16:40:12;;;;;;;1999.90;999.90;;;;;;;;;;4960476;29;20224;-72
2023/01/30 16:42:58;;;;;;;1999.90;999.90;;;;;;;;;;4958070;29;20217;-72
2023/01/30 16:46:01;;;;;;;1999.90;999.90;;;;;;;;;;4951885;29;20208;-72
2023/01/30 16:48:47;;;;;;;1999.90;999.90;;;;;;;;;;4955651;29;20694;-71
2023/01/30 16:51:32;;;;;;;1999.90;999.90;;;;;;;;;;4956618;28;20260;-72